Portada
METAR-TAF:

METAR-TAF

Aeropuertos :

Noshahr, Irán

latitud: 36-39-48N, longitud: 051-27-53E, altitud: 0 m

Observación

El informe se hizo hace 16 minutos, a las 16:00 UTC
Viento 2 kt del sur
Temperatura 10°C
Humedad 82%
Presión 1030 hPa
Visibilidad 10 km o más
Escasas nubes a una altura de 2200 ft, Cumulonimbus.
Cielo nuboso a una altura de 2700 ft

METAR: OINN 171600Z 19002KT 9999 FEW022CB BKN027 10/07 Q1030

Hora: 19:46 (16:16 UTC)


TAF: falta

Observaciones y pronósticos meteorológicos de más de 4000 aeropuertos (mensajes METAR y TAF).

Los puntos amarillos y rojos representan las estaciones disponibles.

Ponga el ratón en el punto deseado para ver el nombre de la estación.

Haga clic para ver las observaciones y los pronósticos meteorológicos.

Para cambiar el mapa : haga clic en los botones verdes con una cruz de color negro para hacer un zoom, en el botón verde con un guión para alejar o en las flechas verdes para mapas adyacentes.


METAR-TAF: